Time;durP1;ratioP1;P1;durP2;ratioP2;P2;SDS_P1;SDS_P2;PMS_P1;PMS_P2;Temp;Humidity;BMP_temperature;BMP_pressure;BME280_temperature;BME280_humidity;BME280_pressure;Samples;Min_cycle;Max_cycle;Signal;HPM_P1;HPM_P2
2022/02/04 00:07:01;;;;;;;;;;;7.00;99.90;;;;;;5126155;27;19958;-71
2022/02/04 00:23:07;;;;;;;;;;;6.80;99.90;;;;;;5128757;27;19916;-72
2022/02/04 00:25:54;;;;;;;;;;;6.90;99.90;;;;;;5122559;27;19959;-71
2022/02/04 00:29:13;;;;;;;;;;;6.90;99.90;;;;;;5127558;27;20264;-71
2022/02/04 00:33:49;;;;;;;;;;;6.90;99.90;;;;;;5123257;27;19912;-72
2022/02/04 00:36:41;;;;;;;;;;;6.90;99.90;;;;;;5131209;27;19911;-71
2022/02/04 00:39:08;;;;;;;;;;;6.90;99.90;;;;;;5124794;27;20034;-71
2022/02/04 00:41:37;;;;;;;;;;;7.00;99.90;;;;;;5125127;27;19918;-71
2022/02/04 00:44:04;;;;;;;;;;;7.10;99.90;;;;;;5127668;27;19938;-72
2022/02/04 00:49:22;;;;;;;;;;;7.00;99.90;;;;;;5118831;27;19990;-71
2022/02/04 00:52:00;;;;;;;;;;;7.10;99.90;;;;;;5126042;27;19912;-72
2022/02/04 01:26:53;;;;;;;;;;;7.10;99.90;;;;;;5138581;27;19929;-73
2022/02/04 01:29:20;;;;;;;;;;;7.10;99.90;;;;;;5141127;27;19943;-72
2022/02/04 01:31:47;;;;;;;;;;;7.20;99.90;;;;;;5137622;27;19908;-73
2022/02/04 01:34:12;;;;;;;;;;;7.20;99.90;;;;;;5129273;27;19912;-72
2022/02/04 01:36:38;;;;;;;;;;;7.30;99.90;;;;;;5125244;27;19964;-72
2022/02/04 01:39:04;;;;;;;;;;;7.30;99.90;;;;;;5121249;27;19912;-71
2022/02/04 01:41:29;;;;;;;;;;;7.40;99.90;;;;;;5125621;27;20242;-72
2022/02/04 01:43:55;;;;;;;;;;;7.30;99.90;;;;;;5128302;27;19916;-71
2022/02/04 01:46:21;;;;;;;;;;;7.30;99.90;;;;;;5122104;27;19975;-72
2022/02/04 01:48:46;;;;;;;;;;;7.40;99.90;;;;;;5122738;27;19911;-72
2022/02/04 01:51:15;;;;;;;;;;;7.50;99.90;;;;;;5123510;27;20405;-71
2022/02/04 01:53:41;;;;;;;;;;;7.50;99.90;;;;;;5127439;27;19920;-71
2022/02/04 01:56:08;;;;;;;;;;;7.50;99.90;;;;;;5130656;27;19951;-71
2022/02/04 01:58:35;;;;;;;;;;;7.50;99.90;;;;;;5122185;27;19912;-72
2022/02/04 02:01:00;;;;;;;;;;;7.60;99.90;;;;;;5121219;27;19916;-72
2022/02/04 02:03:26;;;;;;;;;;;7.60;99.90;;;;;;5123522;27;20060;-72
2022/02/04 02:05:55;;;;;;;;;;;7.60;99.90;;;;;;5129150;27;20289;-72
2022/02/04 02:08:21;;;;;;;;;;;7.50;99.90;;;;;;5120155;27;20265;-71
2022/02/04 02:10:48;;;;;;;;;;;7.50;99.90;;;;;;5120884;28;19919;-72
2022/02/04 02:51:03;;;;;;;;;;;7.40;99.90;;;;;;5130153;27;19957;-72
2022/02/04 03:00:57;;;;;;;;;;;7.40;99.90;;;;;;5129157;27;19911;-72
2022/02/04 03:03:24;;;;;;;;;;;7.50;99.90;;;;;;5122205;27;19958;-72
2022/02/04 03:05:50;;;;;;;;;;;7.50;99.90;;;;;;5126794;27;19915;-72
2022/02/04 03:08:16;;;;;;;;;;;7.50;99.90;;;;;;5129091;27;20360;-72
2022/02/04 03:10:41;;;;;;;;;;;7.60;99.90;;;;;;5129921;27;19915;-71
2022/02/04 03:13:07;;;;;;;;;;;7.50;99.90;;;;;;5126914;27;20075;-72
2022/02/04 03:15:34;;;;;;;;;;;7.50;99.90;;;;;;5128620;27;20363;-72
2022/02/04 03:18:05;;;;;;;;;;;7.50;99.90;;;;;;5125385;27;19911;-71
2022/02/04 03:20:40;;;;;;;;;;;7.50;99.90;;;;;;5128026;27;19919;-72
2022/02/04 03:23:05;;;;;;;;;;;7.50;99.90;;;;;;5126935;27;19907;-72
2022/02/04 03:25:37;;;;;;;;;;;7.50;99.90;;;;;;5131497;27;19950;-71
2022/02/04 03:28:03;;;;;;;;;;;7.50;99.90;;;;;;5123318;27;19907;-72
2022/02/04 03:30:32;;;;;;;;;;;7.40;99.90;;;;;;5129379;27;19998;-71
2022/02/04 03:33:03;;;;;;;;;;;7.40;99.90;;;;;;5124740;27;20040;-72
2022/02/04 03:35:28;;;;;;;;;;;7.40;99.90;;;;;;5119805;27;19915;-72
2022/02/04 03:37:55;;;;;;;;;;;7.50;99.90;;;;;;5119758;27;19919;-71
2022/02/04 03:40:21;;;;;;;;;;;7.40;99.90;;;;;;5129122;27;20368;-71
2022/02/04 03:42:48;;;;;;;;;;;7.30;99.90;;;;;;5126448;27;19973;-71
2022/02/04 03:45:14;;;;;;;;;;;7.50;99.90;;;;;;5129762;27;19916;-72
2022/02/04 03:47:40;;;;;;;;;;;7.40;99.90;;;;;;5120269;27;19985;-72
2022/02/04 03:50:06;;;;;;;;;;;7.30;99.90;;;;;;5126616;27;19912;-72
2022/02/04 03:52:32;;;;;;;;;;;7.30;99.90;;;;;;5127709;27;19951;-72
2022/02/04 03:54:57;;;;;;;;;;;7.40;99.90;;;;;;5129617;27;19912;-72
2022/02/04 03:57:23;;;;;;;;;;;7.30;99.90;;;;;;5125299;27;20700;-71
2022/02/04 03:59:49;;;;;;;;;;;7.60;99.90;;;;;;5129872;27;19912;-72
2022/02/04 04:02:15;;;;;;;;;;;7.70;99.90;;;;;;5121187;27;19907;-73
2022/02/04 04:04:40;;;;;;;;;;;7.70;99.90;;;;;;5126899;27;20288;-72
2022/02/04 04:07:06;;;;;;;;;;;7.70;99.90;;;;;;5129701;27;20305;-72
2022/02/04 04:09:35;;;;;;;;;;;7.70;99.90;;;;;;5124872;27;19911;-72
2022/02/04 04:12:01;;;;;;;;;;;7.70;99.90;;;;;;5124382;27;19936;-71
2022/02/04 04:14:27;;;;;;;;;;;7.60;99.90;;;;;;5128045;27;20404;-72
2022/02/04 04:16:52;;;;;;;;;;;7.60;99.90;;;;;;5123308;27;19919;-69
2022/02/04 04:19:18;;;;;;;;;;;7.50;99.90;;;;;;5130848;27;20444;-72
2022/02/04 04:21:44;;;;;;;;;;;7.50;99.90;;;;;;5129403;27;20809;-72
2022/02/04 04:24:09;;;;;;;;;;;7.40;99.90;;;;;;5130477;27;19919;-72
2022/02/04 04:26:35;;;;;;;;;;;7.30;99.90;;;;;;5118732;27;20360;-73
2022/02/04 04:29:01;;;;;;;;;;;7.30;99.90;;;;;;5119137;27;19911;-72
2022/02/04 04:31:26;;;;;;;;;;;7.20;99.90;;;;;;5127910;27;19911;-72
2022/02/04 04:33:52;;;;;;;;;;;7.10;99.90;;;;;;5124730;27;19944;-73
2022/02/04 04:36:19;;;;;;;;;;;7.10;99.90;;;;;;5124478;27;19944;-72
2022/02/04 04:38:52;;;;;;;;;;;7.10;99.90;;;;;;5125843;27;19912;-72
2022/02/04 05:29:40;;;;;;;;;;;7.20;99.90;;;;;;5122080;27;19911;-73
2022/02/04 05:32:06;;;;;;;;;;;7.10;99.90;;;;;;5125280;27;20003;-71
2022/02/04 05:34:32;;;;;;;;;;;7.20;99.90;;;;;;5125907;27;20345;-72
2022/02/04 05:37:05;;;;;;;;;;;7.20;99.90;;;;;;5119874;27;19918;-72
2022/02/04 05:39:37;;;;;;;;;;;7.10;99.90;;;;;;5126057;27;20458;-72
2022/02/04 05:42:05;;;;;;;;;;;7.10;99.90;;;;;;5125108;27;20001;-72
2022/02/04 05:44:36;;;;;;;;;;;7.10;99.90;;;;;;5121566;27;19915;-72
2022/02/04 05:47:09;;;;;;;;;;;7.10;99.90;;;;;;5119683;27;19922;-72
2022/02/04 05:49:37;;;;;;;;;;;7.00;99.90;;;;;;5125317;27;20269;-72
2022/02/04 05:55:04;;;;;;;;;;;6.90;99.90;;;;;;5123599;27;20337;-71
2022/02/04 05:57:24;;;;;;;;;;;6.80;99.90;;;;;;5116445;27;19919;-72
2022/02/04 06:00:39;;;;;;;;;;;6.70;99.90;;;;;;5129030;27;19918;-72
2022/02/04 06:23:59;;;;;;;;;;;6.70;99.90;;;;;;5126971;27;19926;-72
2022/02/04 06:26:24;;;;;;;;;;;6.60;99.90;;;;;;5127960;28;19911;-72
2022/02/04 06:28:50;;;;;;;;;;;6.50;99.90;;;;;;5127590;28;19912;-72
2022/02/04 06:31:16;;;;;;;;;;;6.50;99.90;;;;;;5119431;27;19920;-72
2022/02/04 06:33:42;;;;;;;;;;;6.40;99.90;;;;;;5135651;28;20581;-68
2022/02/04 06:36:08;;;;;;;;;;;6.40;99.90;;;;;;5130128;27;19979;-67
2022/02/04 06:38:33;;;;;;;;;;;6.40;99.90;;;;;;5130529;27;19943;-69
2022/02/04 06:40:59;;;;;;;;;;;6.40;99.90;;;;;;5135057;27;19911;-69
2022/02/04 06:43:25;;;;;;;;;;;6.30;99.90;;;;;;5135132;28;19919;-67
2022/02/04 06:45:50;;;;;;;;;;;6.30;99.90;;;;;;5122179;28;20414;-69
2022/02/04 06:48:16;;;;;;;;;;;6.30;99.90;;;;;;5127333;28;19934;-69
2022/02/04 06:50:42;;;;;;;;;;;6.40;99.90;;;;;;5127898;28;20022;-69
2022/02/04 06:53:08;;;;;;;;;;;6.30;99.90;;;;;;5119586;28;19999;-68
2022/02/04 06:55:33;;;;;;;;;;;6.30;99.90;;;;;;5131842;28;19974;-69
2022/02/04 06:58:01;;;;;;;;;;;6.40;99.90;;;;;;5136972;27;19924;-67
2022/02/04 07:00:28;;;;;;;;;;;6.40;99.90;;;;;;5137299;28;20008;-68
2022/02/04 07:02:54;;;;;;;;;;;6.50;99.90;;;;;;5144274;28;19991;-67
2022/02/04 07:05:21;;;;;;;;;;;6.70;99.90;;;;;;5116476;28;20396;-69
2022/02/04 07:08:24;;;;;;;;;;;6.90;99.90;;;;;;5116242;27;20309;-69
2022/02/04 07:10:58;;;;;;;;;;;7.10;99.90;;;;;;5118505;27;19940;-69
2022/02/04 07:13:39;;;;;;;;;;;7.20;99.90;;;;;;5127363;27;19980;-68
2022/02/04 07:21:34;;;;;;;;;;;7.80;99.90;;;;;;5126563;27;19934;-69
2022/02/04 07:24:00;;;;;;;;;;;7.80;99.90;;;;;;5124126;27;19916;-70
2022/02/04 07:26:25;;;;;;;;;;;8.00;99.90;;;;;;5122712;27;19923;-70
2022/02/04 07:28:53;;;;;;;;;;;8.10;99.90;;;;;;5139063;27;19991;-71
2022/02/04 07:31:19;;;;;;;;;;;8.20;99.90;;;;;;5133273;27;19918;-68
2022/02/04 07:33:50;;;;;;;;;;;8.20;99.90;;;;;;5131263;27;20002;-68
2022/02/04 07:41:46;;;;;;;;;;;8.50;99.90;;;;;;5123747;27;19912;-69
2022/02/04 07:44:12;;;;;;;;;;;8.60;99.90;;;;;;5127630;27;20401;-69
2022/02/04 07:46:37;;;;;;;;;;;8.70;99.90;;;;;;5132115;27;21135;-70
2022/02/04 07:49:03;;;;;;;;;;;8.90;99.90;;;;;;5131907;27;20003;-67
2022/02/04 07:51:29;;;;;;;;;;;9.00;99.90;;;;;;5123924;27;19995;-70
2022/02/04 07:53:55;;;;;;;;;;;9.20;99.90;;;;;;5130236;27;19911;-69
2022/02/04 07:56:22;;;;;;;;;;;9.40;99.90;;;;;;5126027;27;19919;-72
2022/02/04 07:58:55;;;;;;;;;;;9.50;99.90;;;;;;5131796;27;19919;-70
2022/02/04 08:01:26;;;;;;;;;;;9.50;99.90;;;;;;5126888;27;19919;-70
2022/02/04 08:03:58;;;;;;;;;;;9.60;99.90;;;;;;5123578;27;19923;-71
2022/02/04 08:06:26;;;;;;;;;;;9.80;99.90;;;;;;5125384;27;19949;-71
2022/02/04 08:56:40;;;;;;;;;;;11.10;99.90;;;;;;5122029;27;20005;-68
2022/02/04 08:59:55;;;;;;;;;;;11.10;99.90;;;;;;5131561;27;19919;-69
2022/02/04 09:02:14;;;;;;;;;;;11.20;99.90;;;;;;5131589;27;19915;-71
2022/02/04 09:04:43;;;;;;;;;;;11.50;99.90;;;;;;5127867;27;20338;-71
2022/02/04 09:07:12;;;;;;;;;;;11.60;99.90;;;;;;5121387;27;20273;-68
2022/02/04 09:09:53;;;;;;;;;;;11.60;99.90;;;;;;5131089;27;19926;-68
2022/02/04 09:18:09;;;;;;;;;;;11.60;99.90;;;;;;5128888;27;19922;-68
2022/02/04 09:22:56;;;;;;;;;;;11.90;99.90;;;;;;5126806;27;19999;-70
2022/02/04 09:25:21;;;;;;;;;;;12.00;99.90;;;;;;5129887;27;20010;-67
2022/02/04 09:27:47;;;;;;;;;;;12.10;99.90;;;;;;5128136;27;19956;-69
2022/02/04 09:30:14;;;;;;;;;;;12.20;99.90;;;;;;5120490;27;20002;-70
2022/02/04 09:32:40;;;;;;;;;;;12.30;99.90;;;;;;5128465;27;19943;-70
2022/02/04 09:35:07;;;;;;;;;;;12.30;99.90;;;;;;5129559;27;20388;-69
2022/02/04 09:37:33;;;;;;;;;;;12.30;99.90;;;;;;5122361;27;19930;-69
2022/02/04 09:39:59;;;;;;;;;;;12.30;99.90;;;;;;5126845;27;19911;-69
2022/02/04 09:42:25;;;;;;;;;;;12.40;99.90;;;;;;5128625;27;19912;-70
2022/02/04 09:44:51;;;;;;;;;;;12.40;99.90;;;;;;5127466;27;20369;-68
2022/02/04 09:47:24;;;;;;;;;;;12.40;99.90;;;;;;5124176;27;19922;-70
2022/02/04 09:49:56;;;;;;;;;;;12.40;99.90;;;;;;5125023;27;19964;-68
2022/02/04 10:09:04;;;;;;;;;;;12.60;99.90;;;;;;5122274;27;19911;-68
2022/02/04 10:14:21;;;;;;;;;;;12.70;99.90;;;;;;5123626;27;20280;-67
2022/02/04 10:17:09;;;;;;;;;;;12.70;99.90;;;;;;5125516;27;19964;-66
2022/02/04 10:22:04;;;;;;;;;;;12.70;99.90;;;;;;5126394;28;19912;-70
2022/02/04 10:24:30;;;;;;;;;;;12.80;99.90;;;;;;5129228;27;19915;-69
2022/02/04 10:27:09;;;;;;;;;;;12.80;99.90;;;;;;5124929;28;20376;-67
2022/02/04 10:29:34;;;;;;;;;;;12.80;99.90;;;;;;5119809;28;19933;-67
2022/02/04 10:32:00;;;;;;;;;;;12.90;99.90;;;;;;5121178;27;20006;-68
2022/02/04 10:34:28;;;;;;;;;;;12.90;99.90;;;;;;5129752;27;19937;-67
2022/02/04 10:37:02;;;;;;;;;;;12.90;99.90;;;;;;5120251;27;20018;-67
2022/02/04 10:42:07;;;;;;;;;;;12.80;99.90;;;;;;5125831;27;19911;-67
2022/02/04 10:44:45;;;;;;;;;;;12.90;99.90;;;;;;5128033;27;19938;-69
2022/02/04 10:47:11;;;;;;;;;;;12.90;99.90;;;;;;5120326;27;19912;-68
2022/02/04 10:50:17;;;;;;;;;;;12.80;99.90;;;;;;5129517;27;20344;-70
2022/02/04 10:52:58;;;;;;;;;;;12.80;99.90;;;;;;5128622;27;19916;-67
2022/02/04 11:03:33;;;;;;;;;;;12.60;99.90;;;;;;5113665;27;20002;-68
2022/02/04 11:06:21;;;;;;;;;;;12.70;99.90;;;;;;5115779;27;19919;-69
2022/02/04 11:10:01;;;;;;;;;;;12.70;99.90;;;;;;5117567;27;20431;-67
2022/02/04 11:36:11;;;;;;;;;;;12.10;99.90;;;;;;5132350;27;20052;-70
2022/02/04 11:54:55;;;;;;;;;;;12.20;99.90;;;;;;5126555;27;19951;-69
2022/02/04 11:57:25;;;;;;;;;;;12.40;99.90;;;;;;5122191;27;21190;-67
2022/02/04 11:59:55;;;;;;;;;;;12.40;99.90;;;;;;5120686;27;20013;-67
2022/02/04 12:02:30;;;;;;;;;;;12.40;99.90;;;;;;5126034;27;19919;-68
2022/02/04 12:05:08;;;;;;;;;;;12.50;99.90;;;;;;5132884;27;20384;-70
2022/02/04 12:07:34;;;;;;;;;;;12.50;99.90;;;;;;5127596;27;19916;-69
2022/02/04 12:10:01;;;;;;;;;;;12.50;99.90;;;;;;5128844;27;19915;-68
2022/02/04 12:12:45;;;;;;;;;;;12.60;99.90;;;;;;5125998;27;19911;-68
2022/02/04 12:15:26;;;;;;;;;;;12.70;99.90;;;;;;5122703;27;19984;-68
2022/02/04 12:17:52;;;;;;;;;;;12.90;99.90;;;;;;5132608;27;19957;-68
2022/02/04 12:20:17;;;;;;;;;;;12.90;99.90;;;;;;5128303;27;20272;-67
2022/02/04 12:22:50;;;;;;;;;;;12.80;99.90;;;;;;5129719;27;19912;-68
2022/02/04 12:25:34;;;;;;;;;;;12.80;99.90;;;;;;5130813;27;19924;-67
2022/02/04 12:28:00;;;;;;;;;;;12.70;99.90;;;;;;5125800;27;19919;-68
2022/02/04 12:30:33;;;;;;;;;;;12.80;99.90;;;;;;5123506;27;19970;-68
2022/02/04 12:33:00;;;;;;;;;;;12.80;99.90;;;;;;5121038;27;19912;-68
2022/02/04 12:35:28;;;;;;;;;;;12.80;99.90;;;;;;5130890;27;20002;-68
2022/02/04 12:37:54;;;;;;;;;;;12.80;99.90;;;;;;5130580;27;20379;-69
2022/02/04 12:40:23;;;;;;;;;;;12.90;99.90;;;;;;5128089;27;19954;-67
2022/02/04 12:42:48;;;;;;;;;;;13.00;99.90;;;;;;5124561;27;20520;-67
2022/02/04 12:45:14;;;;;;;;;;;12.80;99.90;;;;;;5122852;27;20014;-67
2022/02/04 12:47:41;;;;;;;;;;;12.70;99.90;;;;;;5132018;27;19979;-68
2022/02/04 12:50:07;;;;;;;;;;;12.70;99.90;;;;;;5125735;27;20396;-70
2022/02/04 12:52:44;;;;;;;;;;;12.80;99.90;;;;;;5123528;27;20373;-68
2022/02/04 12:55:21;;;;;;;;;;;12.70;99.90;;;;;;5124676;27;19912;-67
2022/02/04 12:58:10;;;;;;;;;;;12.70;99.90;;;;;;5127204;27;19912;-68
2022/02/04 13:03:18;;;;;;;;;;;12.60;99.90;;;;;;5123934;27;19961;-68
2022/02/04 13:11:02;;;;;;;;;;;12.70;99.90;;;;;;5122483;27;19956;-67
2022/02/04 13:13:36;;;;;;;;;;;12.80;99.90;;;;;;5123226;27;19918;-68
2022/02/04 13:16:02;;;;;;;;;;;12.80;99.90;;;;;;5123483;27;19908;-68
2022/02/04 13:18:27;;;;;;;;;;;13.00;99.90;;;;;;5128811;27;19918;-67
2022/02/04 13:20:57;;;;;;;;;;;13.00;99.90;;;;;;5124881;27;20250;-67
2022/02/04 13:23:23;;;;;;;;;;;13.00;99.90;;;;;;5122581;27;20002;-69
2022/02/04 13:25:51;;;;;;;;;;;13.00;99.90;;;;;;5125815;27;19922;-70
2022/02/04 13:28:42;;;;;;;;;;;13.00;99.90;;;;;;5127270;27;19919;-68
2022/02/04 13:31:11;;;;;;;;;;;12.60;99.90;;;;;;5125523;27;19959;-69
2022/02/04 13:33:40;;;;;;;;;;;12.50;99.90;;;;;;5129437;27;20521;-67
2022/02/04 13:39:15;;;;;;;;;;;12.60;99.90;;;;;;5129631;27;19998;-68
2022/02/04 14:00:48;;;;;;;;;;;11.60;99.90;;;;;;5126428;27;20014;-68
2022/02/04 14:03:49;;;;;;;;;;;11.60;99.90;;;;;;5130324;27;20369;-67
2022/02/04 14:06:22;;;;;;;;;;;11.60;99.90;;;;;;5110755;27;19953;-68
2022/02/04 14:11:26;;;;;;;;;;;11.30;99.90;;;;;;5130371;27;19911;-68
2022/02/04 14:13:52;;;;;;;;;;;11.10;99.90;;;;;;5132888;27;19977;-67
2022/02/04 14:16:19;;;;;;;;;;;11.10;99.90;;;;;;5126802;27;19918;-67
2022/02/04 14:18:45;;;;;;;;;;;11.00;99.90;;;;;;5130889;27;19915;-68
2022/02/04 14:21:16;;;;;;;;;;;10.90;99.90;;;;;;5130579;27;19919;-67
2022/02/04 14:23:52;;;;;;;;;;;10.90;99.90;;;;;;5126505;28;19994;-67
2022/02/04 14:26:44;;;;;;;;;;;10.70;99.90;;;;;;5124539;28;19922;-68
2022/02/04 14:29:16;;;;;;;;;;;10.70;99.90;;;;;;5121931;28;19995;-68
2022/02/04 14:50:44;;;;;;;;;;;10.50;99.90;;;;;;5126099;28;19964;-68
2022/02/04 15:03:38;;;;;;;;;;;10.50;99.90;;;;;;5130404;27;19934;-69
2022/02/04 15:06:17;;;;;;;;;;;10.40;99.90;;;;;;5119759;27;20419;-67
2022/02/04 15:08:44;;;;;;;;;;;10.40;99.90;;;;;;5131038;27;20262;-67
2022/02/04 15:11:16;;;;;;;;;;;10.40;99.90;;;;;;5127833;27;20009;-68
2022/02/04 15:13:42;;;;;;;;;;;10.40;99.90;;;;;;5132701;27;19907;-66
2022/02/04 15:16:08;;;;;;;;;;;10.40;99.90;;;;;;5119370;28;19991;-67
2022/02/04 15:18:35;;;;;;;;;;;10.50;99.90;;;;;;5132032;28;19908;-68
2022/02/04 15:21:02;;;;;;;;;;;10.60;99.90;;;;;;5130264;28;19922;-69
2022/02/04 15:23:28;;;;;;;;;;;10.60;99.90;;;;;;5127909;28;19912;-69
2022/02/04 15:25:56;;;;;;;;;;;10.70;99.90;;;;;;5129800;27;19916;-70
2022/02/04 15:31:11;;;;;;;;;;;10.60;99.90;;;;;;5132282;27;19968;-68
2022/02/04 15:33:37;;;;;;;;;;;10.60;99.90;;;;;;5126822;27;19912;-69
2022/02/04 15:36:05;;;;;;;;;;;10.70;99.90;;;;;;5133051;27;19916;-69
2022/02/04 15:38:31;;;;;;;;;;;10.80;99.90;;;;;;5131990;27;19912;-68
2022/02/04 15:41:01;;;;;;;;;;;10.80;99.90;;;;;;5120274;27;19911;-68
2022/02/04 15:43:30;;;;;;;;;;;10.70;99.90;;;;;;5148604;27;19915;-69
2022/02/04 15:48:51;;;;;;;;;;;10.70;99.90;;;;;;5129324;27;19912;-70
2022/02/04 15:56:46;;;;;;;;;;;10.50;99.90;;;;;;5132133;27;19919;-68
2022/02/04 16:04:27;;;;;;;;;;;10.40;99.90;;;;;;5127398;27;20316;-68
2022/02/04 16:06:53;;;;;;;;;;;10.40;99.90;;;;;;5131640;27;19937;-68
2022/02/04 16:09:21;;;;;;;;;;;10.40;99.90;;;;;;5133120;27;19915;-67
2022/02/04 16:15:07;;;;;;;;;;;10.40;99.90;;;;;;5132404;27;19920;-68
2022/02/04 16:20:08;;;;;;;;;;;10.50;99.90;;;;;;5121767;27;19915;-67
2022/02/04 16:30:34;;;;;;;;;;;10.30;99.90;;;;;;5125060;27;19958;-68
2022/02/04 16:32:59;;;;;;;;;;;10.30;99.90;;;;;;5131424;27;19908;-68
2022/02/04 16:35:25;;;;;;;;;;;10.40;99.90;;;;;;5123005;27;19911;-69
2022/02/04 16:38:02;;;;;;;;;;;10.50;99.90;;;;;;5119227;27;19912;-68
2022/02/04 16:40:28;;;;;;;;;;;10.50;99.90;;;;;;5132663;27;19918;-68
2022/02/04 16:42:54;;;;;;;;;;;10.70;99.90;;;;;;5120339;27;20280;-68
2022/02/04 16:45:19;;;;;;;;;;;10.70;99.90;;;;;;5114472;27;19939;-68
2022/02/04 16:47:46;;;;;;;;;;;10.70;99.90;;;;;;5127737;27;20011;-69
2022/02/04 16:50:11;;;;;;;;;;;10.80;99.90;;;;;;5128812;27;19927;-68
2022/02/04 16:52:37;;;;;;;;;;;10.80;99.90;;;;;;5126645;27;19908;-67
2022/02/04 16:55:03;;;;;;;;;;;10.80;99.90;;;;;;5133442;27;19907;-68
2022/02/04 16:57:29;;;;;;;;;;;10.80;99.90;;;;;;5127296;27;20395;-67
2022/02/04 17:00:04;;;;;;;;;;;10.80;99.90;;;;;;5132149;27;19907;-67
2022/02/04 17:02:30;;;;;;;;;;;10.80;99.90;;;;;;5132457;27;20330;-67
2022/02/04 17:04:56;;;;;;;;;;;10.80;99.90;;;;;;5123237;27;19915;-67
2022/02/04 17:07:25;;;;;;;;;;;10.80;99.90;;;;;;5122130;27;19915;-68
2022/02/04 17:09:52;;;;;;;;;;;10.70;99.90;;;;;;5129429;27;19919;-67
2022/02/04 17:12:27;;;;;;;;;;;10.70;99.90;;;;;;5131912;27;19990;-67
2022/02/04 17:14:54;;;;;;;;;;;10.70;99.90;;;;;;5125790;27;19918;-68
2022/02/04 17:17:23;;;;;;;;;;;10.70;99.90;;;;;;5121174;27;19912;-67
2022/02/04 17:19:54;;;;;;;;;;;10.80;99.90;;;;;;5125975;27;19971;-67
2022/02/04 17:22:20;;;;;;;;;;;10.80;99.90;;;;;;5124976;27;19912;-68
2022/02/04 17:24:49;;;;;;;;;;;10.90;99.90;;;;;;5126805;27;19968;-73
2022/02/04 17:27:15;;;;;;;;;;;11.10;99.90;;;;;;5114068;27;19915;-73
2022/02/04 17:29:41;;;;;;;;;;;11.30;99.90;;;;;;5126689;27;19952;-73
2022/02/04 17:32:06;;;;;;;;;;;11.30;99.90;;;;;;5131893;27;20010;-72
2022/02/04 17:34:32;;;;;;;;;;;11.40;99.90;;;;;;5127627;27;19920;-72
2022/02/04 17:36:58;;;;;;;;;;;11.50;99.90;;;;;;5118093;27;20296;-74
2022/02/04 17:39:25;;;;;;;;;;;11.50;99.90;;;;;;5119474;27;20288;-73
2022/02/04 17:41:57;;;;;;;;;;;11.50;99.90;;;;;;5119186;27;20381;-72
2022/02/04 17:44:22;;;;;;;;;;;11.30;99.90;;;;;;5120467;27;19920;-73
2022/02/04 17:46:49;;;;;;;;;;;11.30;99.90;;;;;;5119267;27;20158;-75
2022/02/04 17:49:21;;;;;;;;;;;11.20;99.90;;;;;;5118566;27;19911;-72
2022/02/04 17:52:02;;;;;;;;;;;11.10;99.90;;;;;;5118108;27;20357;-73
2022/02/04 17:54:45;;;;;;;;;;;11.10;99.90;;;;;;5122044;27;19915;-74
2022/02/04 17:57:30;;;;;;;;;;;10.90;99.90;;;;;;5115316;27;19940;-72
2022/02/04 18:02:41;;;;;;;;;;;11.00;99.90;;;;;;5121373;27;19923;-72
2022/02/04 18:07:54;;;;;;;;;;;11.40;99.90;;;;;;5118155;27;19919;-75
2022/02/04 18:10:26;;;;;;;;;;;11.50;99.90;;;;;;5119232;27;19912;-73
2022/02/04 18:12:52;;;;;;;;;;;11.50;99.90;;;;;;5118038;27;19911;-72
2022/02/04 18:15:18;;;;;;;;;;;11.40;99.90;;;;;;5126992;27;19911;-73
2022/02/04 18:17:44;;;;;;;;;;;11.50;99.90;;;;;;5117593;27;19911;-71
2022/02/04 18:20:10;;;;;;;;;;;11.40;99.90;;;;;;5126082;27;19912;-72
2022/02/04 18:22:36;;;;;;;;;;;11.40;99.90;;;;;;5109673;28;19965;-74
2022/02/04 18:25:02;;;;;;;;;;;11.30;99.90;;;;;;5130707;28;19919;-71
2022/02/04 18:27:28;;;;;;;;;;;11.20;99.90;;;;;;5132219;27;19908;-72
2022/02/04 18:29:55;;;;;;;;;;;11.20;99.90;;;;;;5124254;28;20242;-73
2022/02/04 18:32:23;;;;;;;;;;;11.20;99.90;;;;;;5119044;28;19919;-73
2022/02/04 18:34:49;;;;;;;;;;;11.20;99.90;;;;;;5114433;28;20390;-74
2022/02/04 18:37:16;;;;;;;;;;;11.30;99.90;;;;;;5120860;28;19912;-74
2022/02/04 18:45:03;;;;;;;;;;;11.40;99.90;;;;;;5118849;28;20391;-73
2022/02/04 18:47:34;;;;;;;;;;;11.40;99.90;;;;;;5122143;28;19938;-71
2022/02/04 18:50:21;;;;;;;;;;;11.30;99.90;;;;;;5120311;28;19919;-74
2022/02/04 18:53:09;;;;;;;;;;;11.20;99.90;;;;;;5120517;28;19977;-72
2022/02/04 18:58:32;;;;;;;;;;;11.20;99.90;;;;;;5057520;28;19913;-71
2022/02/04 19:00:58;;;;;;;;;;;11.20;99.90;;;;;;5097490;27;20696;-71
2022/02/04 19:03:36;;;;;;;;;;;11.10;99.90;;;;;;5121347;27;19934;-74
2022/02/04 19:06:22;;;;;;;;;;;11.20;99.90;;;;;;5124812;27;19916;-72
2022/02/04 19:08:54;;;;;;;;;;;11.20;99.90;;;;;;5123030;27;19926;-73
2022/02/04 19:11:25;;;;;;;;;;;11.30;99.90;;;;;;5121990;27;20049;-72
2022/02/04 19:14:00;;;;;;;;;;;11.40;99.90;;;;;;5119049;27;19911;-72
2022/02/04 19:19:22;;;;;;;;;;;11.70;99.90;;;;;;5122406;27;20014;-72
2022/02/04 19:22:35;;;;;;;;;;;11.70;99.90;;;;;;5126143;27;19918;-72
2022/02/04 19:24:33;;;;;;;;;;;11.70;99.90;;;;;;5114549;27;20002;-71
2022/02/04 19:26:59;;;;;;;;;;;11.60;99.90;;;;;;5133819;27;20008;-71
2022/02/04 19:29:25;;;;;;;;;;;11.70;99.90;;;;;;5121507;27;19940;-71
2022/02/04 19:31:54;;;;;;;;;;;11.70;99.90;;;;;;5134082;27;19907;-72
2022/02/04 19:34:20;;;;;;;;;;;11.60;99.90;;;;;;5133934;27;19918;-71
2022/02/04 19:36:46;;;;;;;;;;;11.40;99.90;;;;;;5129949;27;19919;-71
2022/02/04 19:39:12;;;;;;;;;;;11.30;99.90;;;;;;5133205;27;19907;-73
2022/02/04 19:41:41;;;;;;;;;;;11.10;99.90;;;;;;5116566;27;19919;-71
2022/02/04 19:44:07;;;;;;;;;;;11.10;99.90;;;;;;5117760;27;19932;-72
2022/02/04 19:46:37;;;;;;;;;;;11.00;99.90;;;;;;5133598;27;20420;-75
2022/02/04 19:49:06;;;;;;;;;;;10.80;99.90;;;;;;5119576;27;19958;-74
2022/02/04 19:51:42;;;;;;;;;;;10.80;99.90;;;;;;5120960;27;19990;-70
2022/02/04 20:26:57;;;;;;;;;;;10.50;99.90;;;;;;5125995;27;19916;-71
2022/02/04 20:29:23;;;;;;;;;;;10.50;99.90;;;;;;5128206;27;19939;-71
2022/02/04 20:31:49;;;;;;;;;;;10.50;99.90;;;;;;5128778;27;20369;-73
2022/02/04 20:34:14;;;;;;;;;;;10.50;99.90;;;;;;5131912;27;19911;-75
2022/02/04 20:36:41;;;;;;;;;;;10.50;99.90;;;;;;5125911;27;19916;-71
2022/02/04 20:39:07;;;;;;;;;;;10.60;99.90;;;;;;5129107;27;19948;-72
2022/02/04 20:41:34;;;;;;;;;;;10.60;99.90;;;;;;5126351;27;20042;-72
2022/02/04 20:44:00;;;;;;;;;;;10.60;99.90;;;;;;5122170;27;19911;-72
2022/02/04 20:46:26;;;;;;;;;;;10.50;99.90;;;;;;5120079;27;20002;-72
2022/02/04 20:48:53;;;;;;;;;;;10.50;99.90;;;;;;5120218;27;19983;-75
2022/02/04 20:51:18;;;;;;;;;;;10.50;99.90;;;;;;5120126;27;19911;-73
2022/02/04 20:53:44;;;;;;;;;;;10.60;99.90;;;;;;5127124;27;19916;-73
2022/02/04 20:56:09;;;;;;;;;;;10.50;99.90;;;;;;5119744;27;20297;-73
2022/02/04 20:58:35;;;;;;;;;;;10.50;99.90;;;;;;5128856;27;19918;-73
2022/02/04 21:01:08;;;;;;;;;;;10.50;99.90;;;;;;5128449;27;19962;-75
2022/02/04 21:03:36;;;;;;;;;;;10.50;99.90;;;;;;5116667;27;19965;-71
2022/02/04 21:06:11;;;;;;;;;;;10.50;99.90;;;;;;5126173;27;19998;-74
2022/02/04 21:13:48;;;;;;;;;;;10.30;99.90;;;;;;5129437;27;19964;-74
2022/02/04 21:16:14;;;;;;;;;;;10.40;99.90;;;;;;5123023;27;19920;-74
2022/02/04 21:18:40;;;;;;;;;;;10.40;99.90;;;;;;5128994;27;19919;-73
2022/02/04 21:21:05;;;;;;;;;;;10.40;99.90;;;;;;5128689;27;19915;-74
2022/02/04 21:23:31;;;;;;;;;;;10.40;99.90;;;;;;5125904;27;19911;-74
2022/02/04 21:25:59;;;;;;;;;;;10.30;99.90;;;;;;5124440;27;19958;-74
2022/02/04 21:28:27;;;;;;;;;;;10.30;99.90;;;;;;5124550;27;19940;-72
2022/02/04 21:30:53;;;;;;;;;;;10.30;99.90;;;;;;5122981;27;19911;-73
2022/02/04 21:33:27;;;;;;;;;;;10.30;99.90;;;;;;5130875;27;19922;-73
2022/02/04 21:38:37;;;;;;;;;;;10.30;99.90;;;;;;5118667;27;19965;-73
2022/02/04 21:41:02;;;;;;;;;;;10.30;99.90;;;;;;5125157;27;19911;-73
2022/02/04 21:43:28;;;;;;;;;;;10.30;99.90;;;;;;5126800;27;20558;-72
2022/02/04 21:45:58;;;;;;;;;;;10.30;99.90;;;;;;5125731;27;19946;-72
2022/02/04 21:48:23;;;;;;;;;;;10.20;99.90;;;;;;5126286;27;20068;-76
2022/02/04 21:50:52;;;;;;;;;;;10.30;99.90;;;;;;5118747;27;20009;-72
2022/02/04 21:53:18;;;;;;;;;;;10.20;99.90;;;;;;5119145;27;19924;-73
2022/02/04 21:55:47;;;;;;;;;;;10.20;99.90;;;;;;5127157;27;19912;-71
2022/02/04 21:58:13;;;;;;;;;;;10.30;99.90;;;;;;5128261;27;19911;-72
2022/02/04 22:00:39;;;;;;;;;;;10.30;99.90;;;;;;5117567;27;20430;-74
2022/02/04 22:03:05;;;;;;;;;;;10.40;99.90;;;;;;5122783;27;19915;-72
2022/02/04 22:05:32;;;;;;;;;;;10.30;99.90;;;;;;5120888;27;20018;-75
2022/02/04 22:08:01;;;;;;;;;;;10.30;99.90;;;;;;5127269;27;19926;-73
2022/02/04 22:13:16;;;;;;;;;;;10.30;99.90;;;;;;5121220;27;20010;-72
2022/02/04 22:23:46;;;;;;;;;;;10.20;99.90;;;;;;5125101;27;19926;-74
2022/02/04 22:26:12;;;;;;;;;;;10.10;99.90;;;;;;5124568;28;19916;-73
2022/02/04 22:28:40;;;;;;;;;;;10.20;99.90;;;;;;5123930;28;20005;-71